Time;durP1;ratioP1;P1;durP2;ratioP2;P2;SDS_P1;SDS_P2;PMS_P1;PMS_P2;Temp;Humidity;BMP_temperature;BMP_pressure;BME280_temperature;BME280_humidity;BME280_pressure;Samples;Min_cycle;Max_cycle;Signal;HPM_P1;HPM_P2
2024/04/15 00:00:43;;;;;;;0.20;0.20;;;7.70;1.00;;;;;;5541756;25;20016;-91
2024/04/15 00:03:09;;;;;;;0.20;0.20;;;7.70;1.00;;;;;;5560369;25;20012;-91
2024/04/15 00:05:37;;;;;;;0.20;0.20;;;7.60;1.00;;;;;;5560300;25;20020;-91
2024/04/15 00:08:03;;;;;;;0.10;0.10;;;7.70;1.00;;;;;;5562095;25;20015;-90
2024/04/15 00:10:30;;;;;;;0.20;0.20;;;7.70;1.00;;;;;;5559781;25;20001;-90
2024/04/15 00:12:55;;;;;;;0.10;0.10;;;7.50;1.00;;;;;;5559912;25;20015;-92
2024/04/15 00:15:21;;;;;;;0.17;0.17;;;7.40;1.00;;;;;;5563220;25;20045;-90
2024/04/15 00:17:49;;;;;;;0.20;0.20;;;7.80;1.00;;;;;;5562010;25;20020;-91
2024/04/15 00:20:15;;;;;;;0.20;0.20;;;7.90;1.00;;;;;;5557988;25;20021;-90
2024/04/15 00:22:40;;;;;;;0.20;0.20;;;7.30;1.00;;;;;;5558797;25;20016;-90
2024/04/15 00:25:06;;;;;;;0.10;0.10;;;7.30;1.00;;;;;;5559340;25;20023;-88
2024/04/15 00:27:32;;;;;;;0.20;0.20;;;7.30;1.00;;;;;;5558456;25;20019;-91
2024/04/15 00:29:57;;;;;;;0.20;0.20;;;7.30;1.00;;;;;;5560109;25;20009;-90
2024/04/15 00:32:23;;;;;;;0.17;0.17;;;7.20;1.00;;;;;;5558014;25;20055;-90
2024/04/15 00:34:52;;;;;;;0.20;0.20;;;7.20;1.00;;;;;;5560381;25;20015;-90
2024/04/15 00:37:17;;;;;;;0.10;0.10;;;7.30;1.00;;;;;;5555692;25;20040;-90
2024/04/15 00:39:43;;;;;;;0.20;0.20;;;7.10;1.00;;;;;;5562314;25;20344;-91
2024/04/15 00:42:09;;;;;;;0.20;0.20;;;7.10;1.00;;;;;;5564020;25;20015;-90
2024/04/15 00:44:35;;;;;;;0.10;0.10;;;7.10;1.00;;;;;;5565258;25;19984;-91
2024/04/15 00:47:02;;;;;;;0.20;0.20;;;7.10;1.00;;;;;;5559314;25;20005;-92
2024/04/15 00:49:32;;;;;;;0.20;0.20;;;7.00;1.00;;;;;;5577723;25;20092;-91
2024/04/15 00:51:59;;;;;;;0.20;0.20;;;7.00;1.00;;;;;;5572490;25;20005;-89
2024/04/15 00:54:27;;;;;;;0.20;0.20;;;7.10;1.00;;;;;;5568002;25;20044;-92
2024/04/15 00:56:54;;;;;;;0.10;0.10;;;7.10;1.00;;;;;;5562764;25;20015;-90
2024/04/15 00:59:20;;;;;;;0.20;0.20;;;6.90;1.00;;;;;;5563539;25;20350;-90
2024/04/15 01:01:46;;;;;;;0.30;0.30;;;6.90;1.00;;;;;;5562863;25;20433;-90
2024/04/15 01:04:12;;;;;;;0.20;0.20;;;6.90;1.00;;;;;;5560820;25;20001;-93
2024/04/15 01:06:39;;;;;;;0.20;0.20;;;7.00;1.00;;;;;;5562997;25;20005;-91
2024/04/15 01:09:05;;;;;;;0.20;0.20;;;6.90;1.00;;;;;;5564776;25;20005;-89
2024/04/15 01:11:32;;;;;;;0.10;0.10;;;6.90;1.00;;;;;;5563469;25;20013;-91
2024/04/15 01:13:57;;;;;;;0.20;0.20;;;6.90;1.00;;;;;;5563523;25;20001;-91
2024/04/15 01:16:34;;;;;;;0.10;0.10;;;6.90;1.00;;;;;;5562719;25;20028;-91
2024/04/15 01:19:00;;;;;;;0.20;0.20;;;6.80;1.00;;;;;;5562498;25;20440;-90
2024/04/15 01:21:25;;;;;;;0.20;0.20;;;6.80;1.00;;;;;;5557833;25;20422;-90
2024/04/15 01:23:51;;;;;;;0.20;0.20;;;6.80;1.00;;;;;;5563358;25;20010;-90
2024/04/15 01:26:17;;;;;;;0.20;0.20;;;6.80;1.00;;;;;;5563123;25;20670;-90
2024/04/15 01:28:43;;;;;;;0.20;0.20;;;6.80;1.00;;;;;;5563680;25;20011;-88
2024/04/15 01:31:09;;;;;;;0.10;0.10;;;6.80;1.00;;;;;;5563714;25;20004;-88
2024/04/15 01:33:35;;;;;;;0.13;0.13;;;6.80;1.00;;;;;;5564649;25;20005;-89
2024/04/15 01:36:01;;;;;;;0.20;0.20;;;6.80;1.00;;;;;;5557408;25;20001;-91
2024/04/15 01:38:27;;;;;;;0.20;0.20;;;6.80;1.00;;;;;;5556050;25;20767;-91
2024/04/15 01:40:54;;;;;;;0.17;0.17;;;6.70;1.00;;;;;;5562117;25;20050;-91
2024/04/15 01:43:20;;;;;;;0.20;0.20;;;6.70;1.00;;;;;;5561488;25;20411;-91
2024/04/15 01:45:46;;;;;;;0.20;0.20;;;6.70;1.00;;;;;;5560800;25;20008;-89
2024/04/15 01:48:11;;;;;;;0.17;0.17;;;6.70;1.00;;;;;;5554471;25;20041;-91
2024/04/15 01:50:37;;;;;;;0.20;0.20;;;6.70;1.00;;;;;;5560889;25;20012;-89
2024/04/15 01:53:07;;;;;;;0.20;0.20;;;6.70;1.00;;;;;;5558930;25;20004;-89
2024/04/15 01:55:32;;;;;;;0.20;0.20;;;6.70;1.00;;;;;;5560176;25;20020;-87
2024/04/15 01:57:58;;;;;;;0.20;0.20;;;6.60;1.00;;;;;;5560419;25;20547;-89
2024/04/15 02:00:24;;;;;;;0.20;0.20;;;6.70;1.00;;;;;;5560356;25;20037;-88
2024/04/15 02:02:50;;;;;;;0.20;0.20;;;6.60;1.00;;;;;;5557638;25;20016;-90
2024/04/15 02:05:15;;;;;;;0.20;0.20;;;6.60;1.00;;;;;;5561413;25;20015;-90
2024/04/15 02:07:41;;;;;;;0.20;0.20;;;6.60;1.00;;;;;;5559096;25;20013;-89
2024/04/15 02:10:07;;;;;;;0.20;0.20;;;6.60;1.00;;;;;;5562097;25;20375;-89
2024/04/15 02:12:34;;;;;;;0.10;0.10;;;6.60;1.00;;;;;;5563037;25;20036;-90
2024/04/15 02:14:59;;;;;;;0.20;0.20;;;6.60;1.00;;;;;;5564145;25;20005;-89
2024/04/15 02:17:25;;;;;;;0.20;0.20;;;6.60;1.00;;;;;;5571256;25;19984;-88
2024/04/15 02:19:51;;;;;;;0.10;0.10;;;6.60;1.00;;;;;;5564615;25;20456;-87
2024/04/15 02:22:17;;;;;;;0.20;0.20;;;6.60;1.00;;;;;;5558719;25;20014;-89
2024/04/15 02:24:43;;;;;;;0.20;0.20;;;6.70;1.00;;;;;;5558976;25;21099;-88
2024/04/15 02:27:08;;;;;;;0.10;0.10;;;6.70;1.00;;;;;;5557676;25;20072;-89
2024/04/15 02:29:34;;;;;;;0.20;0.20;;;6.60;1.00;;;;;;5558578;25;20004;-88
2024/04/15 02:32:00;;;;;;;0.20;0.20;;;6.70;1.00;;;;;;5557661;25;20027;-90
2024/04/15 02:34:27;;;;;;;0.20;0.20;;;6.60;1.00;;;;;;5556432;25;20368;-90
2024/04/15 02:36:53;;;;;;;0.15;0.15;;;6.80;1.00;;;;;;5554370;25;20063;-89
2024/04/15 02:39:18;;;;;;;0.20;0.20;;;6.60;1.00;;;;;;5559018;25;20001;-88
2024/04/15 02:41:44;;;;;;;0.10;0.10;;;6.60;1.00;;;;;;5557283;25;20023;-91
2024/04/15 02:44:10;;;;;;;0.20;0.20;;;6.60;1.00;;;;;;5557464;25;20012;-89
2024/04/15 02:46:36;;;;;;;0.20;0.20;;;6.70;1.00;;;;;;5557411;25;20027;-88
2024/04/15 02:49:01;;;;;;;0.10;0.10;;;6.60;1.00;;;;;;5550197;25;19996;-88
2024/04/15 02:51:31;;;;;;;0.20;0.20;;;6.70;1.00;;;;;;5551326;25;20011;-89
2024/04/15 02:53:57;;;;;;;0.20;0.20;;;6.70;1.00;;;;;;5558478;25;20080;-89
2024/04/15 02:56:22;;;;;;;0.20;0.20;;;6.70;1.00;;;;;;5557801;25;20344;-88
2024/04/15 02:58:48;;;;;;;0.20;0.20;;;6.70;1.00;;;;;;5559814;25;20019;-90
2024/04/15 03:01:14;;;;;;;0.20;0.20;;;6.70;1.00;;;;;;5558946;25;20011;-90
2024/04/15 03:03:39;;;;;;;0.20;0.20;;;6.70;1.00;;;;;;5558766;25;20347;-88
2024/04/15 03:06:25;;;;;;;0.10;0.10;;;6.80;1.00;;;;;;5555115;25;20001;-89
2024/04/15 03:08:52;;;;;;;0.20;0.20;;;6.80;1.00;;;;;;5560338;25;20015;-88
2024/04/15 03:11:17;;;;;;;0.20;0.20;;;6.80;1.00;;;;;;5557862;25;20005;-88
2024/04/15 03:13:46;;;;;;;0.20;0.20;;;6.80;1.00;;;;;;5557122;25;19997;-89
2024/04/15 03:16:32;;;;;;;0.20;0.20;;;6.80;1.00;;;;;;5555929;25;20000;-88
2024/04/15 03:18:58;;;;;;;0.20;0.20;;;6.90;1.00;;;;;;5557996;25;20371;-88
2024/04/15 03:21:23;;;;;;;0.20;0.20;;;6.90;1.00;;;;;;5557479;25;20016;-90
2024/04/15 03:24:01;;;;;;;0.10;0.10;;;6.90;1.00;;;;;;5558317;25;20485;-88
2024/04/15 03:26:27;;;;;;;0.10;0.10;;;6.90;1.00;;;;;;5557562;25;20100;-90
2024/04/15 03:28:53;;;;;;;0.10;0.10;;;6.90;1.00;;;;;;5557646;25;20042;-88
2024/04/15 03:31:19;;;;;;;0.17;0.17;;;7.00;1.00;;;;;;5576761;25;20023;-89
2024/04/15 03:33:44;;;;;;;0.20;0.20;;;7.00;1.00;;;;;;5559399;25;20098;-89
2024/04/15 03:36:11;;;;;;;0.20;0.20;;;7.00;1.00;;;;;;5556636;25;20380;-89
2024/04/15 03:38:37;;;;;;;0.20;0.20;;;7.00;1.00;;;;;;5557429;25;20017;-88
2024/04/15 03:41:03;;;;;;;0.10;0.10;;;7.10;1.00;;;;;;5556165;25;20005;-89
2024/04/15 03:43:36;;;;;;;0.20;0.20;;;7.10;1.00;;;;;;5556113;25;20020;-89
2024/04/15 03:46:01;;;;;;;0.20;0.20;;;7.20;1.00;;;;;;5556225;25;20001;-88
2024/04/15 03:48:30;;;;;;;0.10;0.10;;;7.10;1.00;;;;;;5554839;25;20467;-89
2024/04/15 03:51:16;;;;;;;0.17;0.17;;;7.10;1.00;;;;;;5554458;25;19996;-89
2024/04/15 03:53:45;;;;;;;0.10;0.10;;;7.20;1.00;;;;;;5557052;25;20000;-90
2024/04/15 03:56:10;;;;;;;0.20;0.20;;;7.20;1.00;;;;;;5556292;25;20019;-88
2024/04/15 03:58:54;;;;;;;0.20;0.20;;;7.20;1.00;;;;;;5555942;25;20020;-87
2024/04/15 04:01:20;;;;;;;0.20;0.20;;;7.20;1.00;;;;;;5554700;25;20005;-91
2024/04/15 04:03:53;;;;;;;0.20;0.20;;;7.20;1.00;;;;;;5557033;25;20409;-88
2024/04/15 04:06:19;;;;;;;0.20;0.20;;;7.20;1.00;;;;;;5556480;25;20010;-87
2024/04/15 04:08:45;;;;;;;0.10;0.10;;;7.30;1.00;;;;;;5556826;25;20004;-87
2024/04/15 04:11:23;;;;;;;0.20;0.20;;;7.30;1.00;;;;;;5560938;25;20016;-89
2024/04/15 04:13:49;;;;;;;0.10;0.10;;;7.30;1.00;;;;;;5560208;25;20021;-86
2024/04/15 04:16:15;;;;;;;0.20;0.20;;;7.30;1.00;;;;;;5560374;25;20015;-88
2024/04/15 04:18:41;;;;;;;0.10;0.10;;;7.30;1.00;;;;;;5560136;25;20019;-85
2024/04/15 04:21:26;;;;;;;0.20;0.20;;;7.30;1.00;;;;;;5557371;25;20004;-89
2024/04/15 04:23:58;;;;;;;0.10;0.10;;;7.30;1.00;;;;;;5555917;25;19997;-88
2024/04/15 04:26:23;;;;;;;0.10;0.10;;;7.40;1.00;;;;;;5558948;25;20413;-88
2024/04/15 04:28:49;;;;;;;0.20;0.20;;;7.40;1.00;;;;;;5569544;25;20009;-87
2024/04/15 04:31:16;;;;;;;0.13;0.13;;;7.40;1.00;;;;;;5566695;25;20027;-89
2024/04/15 04:33:42;;;;;;;0.15;0.15;;;7.40;1.00;;;;;;5557679;25;20239;-88
2024/04/15 04:36:08;;;;;;;0.20;0.20;;;7.40;1.00;;;;;;5558222;25;20005;-87
2024/04/15 04:38:34;;;;;;;0.20;0.20;;;7.40;1.00;;;;;;5559560;25;20001;-87
2024/04/15 04:41:00;;;;;;;0.20;0.20;;;7.40;1.00;;;;;;5561192;25;20015;-88
2024/04/15 04:43:26;;;;;;;0.10;0.10;;;7.30;1.00;;;;;;5563142;25;20012;-88
2024/04/15 04:45:53;;;;;;;0.20;0.20;;;7.40;1.00;;;;;;5563008;25;20542;-90
2024/04/15 04:48:20;;;;;;;0.20;0.20;;;7.50;1.00;;;;;;5560867;25;20487;-87
2024/04/15 04:50:50;;;;;;;0.20;0.20;;;7.40;1.00;;;;;;5546147;25;19996;-87
2024/04/15 04:53:16;;;;;;;0.20;0.20;;;7.40;1.00;;;;;;5558503;25;20348;-88
2024/04/15 04:55:41;;;;;;;0.20;0.20;;;7.40;1.00;;;;;;5553406;25;20015;-88
2024/04/15 04:58:07;;;;;;;0.20;0.20;;;7.40;1.00;;;;;;5555025;25;20001;-89
2024/04/15 05:00:33;;;;;;;0.10;0.10;;;7.40;1.00;;;;;;5547502;25;19997;-87
2024/04/15 05:02:59;;;;;;;0.10;0.10;;;7.40;1.00;;;;;;5540164;25;20012;-87
2024/04/15 05:05:25;;;;;;;0.10;0.10;;;7.70;1.00;;;;;;5560099;25;20015;-87
2024/04/15 05:07:50;;;;;;;0.13;0.13;;;7.40;1.00;;;;;;5534239;25;19997;-88
2024/04/15 05:10:16;;;;;;;0.10;0.10;;;7.40;1.00;;;;;;5555195;25;20356;-89
2024/04/15 05:12:42;;;;;;;0.10;0.10;;;7.40;1.00;;;;;;5534410;25;20016;-89
2024/04/15 05:15:09;;;;;;;0.20;0.20;;;7.40;1.00;;;;;;5557607;25;20033;-88
2024/04/15 05:17:35;;;;;;;0.10;0.10;;;7.40;1.00;;;;;;5577754;25;20020;-88
2024/04/15 05:20:01;;;;;;;0.20;0.20;;;7.40;1.00;;;;;;5562654;25;20005;-88
2024/04/15 05:22:27;;;;;;;0.20;0.20;;;7.40;1.00;;;;;;5550745;25;19996;-88
2024/04/15 05:24:56;;;;;;;0.15;0.15;;;7.40;1.00;;;;;;5560601;25;20004;-88
2024/04/15 05:27:22;;;;;;;0.10;0.10;;;7.50;1.00;;;;;;5560236;25;20011;-90
2024/04/15 05:29:47;;;;;;;0.17;0.17;;;7.50;1.00;;;;;;5530980;25;20005;-87
2024/04/15 05:32:13;;;;;;;0.10;0.10;;;7.50;1.00;;;;;;5552463;25;20012;-87
2024/04/15 05:34:39;;;;;;;0.10;0.10;;;7.60;1.00;;;;;;5524190;25;20453;-88
2024/04/15 05:37:05;;;;;;;0.10;0.10;;;7.60;1.00;;;;;;5523280;25;20005;-89
2024/04/15 05:39:31;;;;;;;0.10;0.10;;;7.60;1.00;;;;;;5531015;25;20005;-88
2024/04/15 05:41:57;;;;;;;0.20;0.20;;;7.60;1.00;;;;;;5542697;25;20005;-89
2024/04/15 05:44:23;;;;;;;0.10;0.10;;;7.60;1.00;;;;;;5528923;25;20006;-89
2024/04/15 05:46:50;;;;;;;0.20;0.20;;;7.70;1.00;;;;;;5524248;25;20741;-88
2024/04/15 05:49:17;;;;;;;0.10;0.10;;;7.70;1.00;;;;;;5526572;25;20017;-87
2024/04/15 05:51:44;;;;;;;0.10;0.10;;;7.90;1.00;;;;;;5525558;25;19998;-88
2024/04/15 05:54:10;;;;;;;0.13;0.13;;;7.80;1.00;;;;;;5525734;25;20016;-89
2024/04/15 05:56:36;;;;;;;0.20;0.20;;;7.80;1.00;;;;;;5536411;25;20009;-88
2024/04/15 05:59:02;;;;;;;0.20;0.20;;;7.80;1.00;;;;;;5524721;26;20054;-91
2024/04/15 06:01:27;;;;;;;0.10;0.10;;;7.90;1.00;;;;;;5541329;25;20453;-91
2024/04/15 06:03:53;;;;;;;0.20;0.20;;;7.90;1.00;;;;;;5541213;25;20045;-91
2024/04/15 06:06:19;;;;;;;0.15;0.15;;;8.00;1.00;;;;;;5543503;25;20006;-91
2024/04/15 06:08:45;;;;;;;0.10;0.10;;;8.10;1.00;;;;;;5524766;25;20340;-93
2024/04/15 06:11:10;;;;;;;0.20;0.20;;;8.10;1.00;;;;;;5531385;25;20017;-91
2024/04/15 06:13:36;;;;;;;0.17;0.17;;;8.20;1.00;;;;;;5528163;25;20051;-89
2024/04/15 06:16:03;;;;;;;0.15;0.15;;;8.20;1.00;;;;;;5525231;25;20029;-89
2024/04/15 06:18:28;;;;;;;0.10;0.10;;;8.30;1.00;;;;;;5547629;25;20005;-90
2024/04/15 06:20:54;;;;;;;0.20;0.20;;;8.30;1.00;;;;;;5556257;25;19992;-89
2024/04/15 06:23:20;;;;;;;0.10;0.10;;;8.50;1.00;;;;;;5563095;25;20340;-91
2024/04/15 06:25:53;;;;;;;0.17;0.17;;;8.80;1.00;;;;;;5529602;25;20477;-92
2024/04/15 06:28:19;;;;;;;0.10;0.10;;;8.60;1.00;;;;;;5541632;25;20001;-90
2024/04/15 06:30:46;;;;;;;0.10;0.10;;;8.60;1.00;;;;;;5531119;25;20693;-89
2024/04/15 06:33:11;;;;;;;0.20;0.20;;;8.70;1.00;;;;;;5531113;25;20002;-93
2024/04/15 06:35:37;;;;;;;0.20;0.20;;;8.70;1.00;;;;;;5530531;25;20005;-93
2024/04/15 06:38:03;;;;;;;0.20;0.20;;;8.70;1.00;;;;;;5525230;25;20464;-88
2024/04/15 06:40:30;;;;;;;0.20;0.20;;;8.80;1.00;;;;;;5527755;25;20017;-88
2024/04/15 06:42:56;;;;;;;0.20;0.20;;;8.90;1.00;;;;;;5552227;25;20467;-90
2024/04/15 06:45:22;;;;;;;0.15;0.15;;;9.00;1.00;;;;;;5539999;25;20004;-87
2024/04/15 06:47:50;;;;;;;0.20;0.20;;;9.10;1.00;;;;;;5543418;25;20015;-90
2024/04/15 06:50:16;;;;;;;0.10;0.10;;;9.10;1.00;;;;;;5527406;25;20099;-91
2024/04/15 06:52:41;;;;;;;0.10;0.10;;;9.20;1.00;;;;;;5540807;25;19993;-92
2024/04/15 06:55:07;;;;;;;0.10;0.10;;;9.30;1.00;;;;;;5524924;25;20020;-91
2024/04/15 06:57:33;;;;;;;0.13;0.13;;;9.40;1.00;;;;;;5537881;25;20005;-89
2024/04/15 06:59:59;;;;;;;0.13;0.13;;;9.50;1.00;;;;;;5554789;25;20005;-89
2024/04/15 07:02:25;;;;;;;0.10;0.10;;;9.60;1.00;;;;;;5540144;25;20045;-85
2024/04/15 07:04:52;;;;;;;0.20;0.20;;;9.60;1.00;;;;;;5542652;25;20465;-85
2024/04/15 07:07:19;;;;;;;0.10;0.10;;;9.80;1.00;;;;;;5590311;25;20043;-86
2024/04/15 07:09:46;;;;;;;0.10;0.10;;;9.80;1.00;;;;;;5542281;25;20044;-91
2024/04/15 07:12:11;;;;;;;0.10;0.10;;;9.90;1.00;;;;;;5561440;25;20096;-88
2024/04/15 07:14:37;;;;;;;0.20;0.20;;;10.00;1.00;;;;;;5554055;25;20009;-92
2024/04/15 07:17:04;;;;;;;0.10;0.10;;;10.10;1.00;;;;;;5555618;25;19997;-92
2024/04/15 07:19:29;;;;;;;0.20;0.20;;;10.00;1.00;;;;;;5527381;25;20012;-90
2024/04/15 07:21:55;;;;;;;0.15;0.15;;;10.10;1.00;;;;;;5522522;26;20041;-91
2024/04/15 07:24:21;;;;;;;0.10;0.10;;;10.10;1.00;;;;;;5546905;25;19997;-92
2024/04/15 07:26:46;;;;;;;0.10;0.10;;;10.20;1.00;;;;;;5545165;25;20008;-93
2024/04/15 07:29:12;;;;;;;0.10;0.10;;;10.30;1.00;;;;;;5554439;25;20019;-90
2024/04/15 07:31:39;;;;;;;0.10;0.10;;;10.40;1.00;;;;;;5560493;25;20468;-92
2024/04/15 07:34:05;;;;;;;0.17;0.17;;;10.40;1.00;;;;;;5555490;25;19992;-91
2024/04/15 07:36:31;;;;;;;0.20;0.20;;;10.50;1.00;;;;;;5538409;25;20408;-91
2024/04/15 07:38:58;;;;;;;0.20;0.20;;;10.60;1.00;;;;;;5534439;25;20002;-91
2024/04/15 07:41:25;;;;;;;0.20;0.20;;;10.60;1.00;;;;;;5528492;25;20012;-89
2024/04/15 07:43:51;;;;;;;0.20;0.20;;;10.70;1.00;;;;;;5552178;25;20018;-90
2024/04/15 07:46:17;;;;;;;0.10;0.10;;;10.80;1.00;;;;;;5542864;25;19997;-92
2024/04/15 07:48:43;;;;;;;0.10;0.10;;;11.00;1.00;;;;;;5526914;26;20016;-92
2024/04/15 07:51:09;;;;;;;0.10;0.10;;;10.90;1.00;;;;;;5533816;25;20008;-91
2024/04/15 07:53:34;;;;;;;0.10;0.10;;;10.90;1.00;;;;;;5527552;25;20125;-91
2024/04/15 07:56:00;;;;;;;0.10;0.10;;;11.00;1.00;;;;;;5536026;25;20017;-90
2024/04/15 07:58:26;;;;;;;0.20;0.20;;;11.10;1.00;;;;;;5551373;25;20076;-88
2024/04/15 08:00:53;;;;;;;0.10;0.10;;;11.10;1.00;;;;;;5552565;25;20545;-86
2024/04/15 08:03:18;;;;;;;0.10;0.10;;;11.00;1.00;;;;;;5562631;25;20005;-86
2024/04/15 08:05:44;;;;;;;0.10;0.10;;;11.20;1.00;;;;;;5537807;25;19997;-91
2024/04/15 08:08:10;;;;;;;0.10;0.10;;;11.20;1.00;;;;;;5562124;25;20036;-88
2024/04/15 08:10:37;;;;;;;0.10;0.10;;;11.20;1.00;;;;;;5564193;25;20004;-90
2024/04/15 08:13:03;;;;;;;0.10;0.10;;;11.30;1.00;;;;;;5563433;25;20015;-84
2024/04/15 08:15:31;;;;;;;0.10;0.10;;;11.40;1.00;;;;;;5560229;25;20013;-86
2024/04/15 08:17:58;;;;;;;0.10;0.10;;;11.40;1.00;;;;;;5564213;25;20468;-87
2024/04/15 08:20:24;;;;;;;0.10;0.10;;;11.60;1.00;;;;;;5549958;25;20128;-90
2024/04/15 08:22:49;;;;;;;0.10;0.10;;;11.60;1.00;;;;;;5559701;25;20032;-90
2024/04/15 08:25:16;;;;;;;0.17;0.17;;;11.70;1.00;;;;;;5560014;25;20005;-89
2024/04/15 08:27:42;;;;;;;0.20;0.20;;;11.80;1.00;;;;;;5524241;25;20005;-87
2024/04/15 08:30:08;;;;;;;0.10;0.10;;;11.90;1.00;;;;;;5524470;25;20463;-89
2024/04/15 08:32:34;;;;;;;0.20;0.20;;;12.00;1.00;;;;;;5524988;25;20006;-88
2024/04/15 08:35:01;;;;;;;0.10;0.10;;;12.10;1.00;;;;;;5549178;25;20011;-90
2024/04/15 08:37:27;;;;;;;0.20;0.20;;;12.20;1.00;;;;;;5561630;25;20448;-86
2024/04/15 08:39:52;;;;;;;0.20;0.20;;;12.20;1.00;;;;;;5560133;25;20036;-88
2024/04/15 08:42:21;;;;;;;0.10;0.10;;;12.30;1.00;;;;;;5563231;25;20039;-89
2024/04/15 08:44:48;;;;;;;0.20;0.20;;;12.30;1.00;;;;;;5528036;25;20005;-91
2024/04/15 08:47:29;;;;;;;0.20;0.20;;;12.40;1.00;;;;;;5525515;25;20006;-86
2024/04/15 08:49:55;;;;;;;0.20;0.20;;;12.40;1.00;;;;;;5524466;25;20020;-91
2024/04/15 08:52:21;;;;;;;0.20;0.20;;;12.40;1.00;;;;;;5551909;25;20020;-90
2024/04/15 08:54:47;;;;;;;0.10;0.10;;;12.30;1.00;;;;;;5529797;25;20005;-89
2024/04/15 08:57:13;;;;;;;0.13;0.13;;;12.30;1.00;;;;;;5524841;25;20460;-90
2024/04/15 08:59:43;;;;;;;0.20;0.20;;;12.30;1.00;;;;;;5524244;25;20006;-89
2024/04/15 09:02:13;;;;;;;0.17;0.17;;;12.30;1.00;;;;;;5525204;25;20014;-87
2024/04/15 09:04:43;;;;;;;0.10;0.10;;;12.20;1.00;;;;;;5533537;25;20021;-89
2024/04/15 09:07:09;;;;;;;0.10;0.10;;;12.60;1.00;;;;;;5531832;25;20502;-91
2024/04/15 09:09:35;;;;;;;0.15;0.15;;;12.20;1.00;;;;;;5531265;25;20012;-87
2024/04/15 09:12:01;;;;;;;0.10;0.10;;;12.20;1.00;;;;;;5562485;25;20016;-87
2024/04/15 09:14:27;;;;;;;0.10;0.10;;;12.20;1.00;;;;;;5543759;25;20005;-88
2024/04/15 09:16:53;;;;;;;0.13;0.13;;;12.20;1.00;;;;;;5554932;25;20004;-89
2024/04/15 09:19:22;;;;;;;0.10;0.10;;;12.30;1.00;;;;;;5554253;25;20017;-89
2024/04/15 09:21:48;;;;;;;0.10;0.10;;;12.30;1.00;;;;;;5542633;25;20337;-89
2024/04/15 09:24:14;;;;;;;0.10;0.10;;;12.40;1.00;;;;;;5551008;25;20004;-89
2024/04/15 09:26:39;;;;;;;0.20;0.20;;;12.40;1.00;;;;;;5543111;25;20101;-90
2024/04/15 09:29:05;;;;;;;0.10;0.10;;;12.40;1.00;;;;;;5560450;25;20052;-90
2024/04/15 09:31:31;;;;;;;0.20;0.20;;;12.50;1.00;;;;;;5541559;25;20012;-89
2024/04/15 09:33:58;;;;;;;0.10;0.10;;;12.60;1.00;;;;;;5552918;25;20351;-88
2024/04/15 09:36:24;;;;;;;0.10;0.10;;;12.70;1.00;;;;;;5532060;25;20416;-88
2024/04/15 09:38:51;;;;;;;0.10;0.10;;;12.80;1.00;;;;;;5529662;25;20012;-89
2024/04/15 09:41:18;;;;;;;0.15;0.15;;;12.80;1.00;;;;;;5567395;25;20017;-91
2024/04/15 09:43:46;;;;;;;0.13;0.13;;;12.80;1.00;;;;;;5557247;25;20468;-89
2024/04/15 09:46:12;;;;;;;0.10;0.10;;;12.80;1.00;;;;;;5554900;25;20323;-87
2024/04/15 09:48:39;;;;;;;0.20;0.20;;;12.80;1.00;;;;;;5562539;25;20004;-93
2024/04/15 09:51:09;;;;;;;0.10;0.10;;;12.90;1.00;;;;;;5535346;25;20009;-89
2024/04/15 09:53:42;;;;;;;0.20;0.20;;;12.90;1.00;;;;;;5527797;25;20484;-87
2024/04/15 09:56:15;;;;;;;0.10;0.10;;;12.90;1.00;;;;;;5525025;25;20015;-89
2024/04/15 09:58:44;;;;;;;0.10;0.10;;;12.90;1.00;;;;;;5536961;25;20005;-90
2024/04/15 10:01:17;;;;;;;0.10;0.10;;;13.00;1.00;;;;;;5553407;25;20041;-88
2024/04/15 10:03:48;;;;;;;0.20;0.20;;;13.00;1.00;;;;;;5561842;25;20005;-89
2024/04/15 10:06:17;;;;;;;0.20;0.20;;;13.00;1.00;;;;;;5528117;25;20349;-87
2024/04/15 10:08:43;;;;;;;0.20;0.20;;;13.10;1.00;;;;;;5525677;25;20573;-88
2024/04/15 10:11:09;;;;;;;0.10;0.10;;;13.10;1.00;;;;;;5529149;25;20004;-88
2024/04/15 10:13:35;;;;;;;0.10;0.10;;;13.10;1.00;;;;;;5541014;25;20015;-89
2024/04/15 10:16:01;;;;;;;0.17;0.17;;;13.10;1.00;;;;;;5546090;25;20332;-90
2024/04/15 10:18:30;;;;;;;0.10;0.10;;;13.10;1.00;;;;;;5551474;25;20001;-87
2024/04/15 10:20:56;;;;;;;0.10;0.10;;;13.00;1.00;;;;;;5560068;25;20029;-87
2024/04/15 10:23:24;;;;;;;0.20;0.20;;;12.90;1.00;;;;;;5559550;25;20349;-87
2024/04/15 10:25:50;;;;;;;0.10;0.10;;;12.80;1.00;;;;;;5560657;25;20001;-88
2024/04/15 10:28:17;;;;;;;0.15;0.15;;;12.80;1.00;;;;;;5561442;25;20012;-86
2024/04/15 10:30:47;;;;;;;0.10;0.10;;;12.70;1.00;;;;;;5558014;25;20015;-85
2024/04/15 10:33:15;;;;;;;0.10;0.10;;;12.60;1.00;;;;;;5523913;25;20345;-84
2024/04/15 10:35:43;;;;;;;0.10;0.10;;;12.60;1.00;;;;;;5529444;25;20006;-86
2024/04/15 10:38:10;;;;;;;0.10;0.10;;;12.50;1.00;;;;;;5522697;25;20021;-90
2024/04/15 10:40:46;;;;;;;0.10;0.10;;;12.40;1.00;;;;;;5558410;25;20004;-88
2024/04/15 10:43:13;;;;;;;0.10;0.10;;;12.40;1.00;;;;;;5563383;25;20661;-90
2024/04/15 10:45:39;;;;;;;0.20;0.20;;;12.30;1.00;;;;;;5561602;25;20001;-87
2024/04/15 10:48:05;;;;;;;0.13;0.13;;;12.20;1.00;;;;;;5559599;25;20015;-86
2024/04/15 10:50:31;;;;;;;0.10;0.10;;;12.20;1.00;;;;;;5549061;25;20537;-89
2024/04/15 10:52:57;;;;;;;0.10;0.10;;;12.20;1.00;;;;;;5522745;25;20001;-87
2024/04/15 10:55:23;;;;;;;0.10;0.10;;;12.20;1.00;;;;;;5523078;25;20014;-88
2024/04/15 10:57:50;;;;;;;0.10;0.10;;;12.20;1.00;;;;;;5536065;25;20020;-90
2024/04/15 11:00:21;;;;;;;0.10;0.10;;;12.10;1.00;;;;;;5524103;25;20095;-88
2024/04/15 11:02:50;;;;;;;;;;;12.10;1.00;;;;;;5538046;25;20011;-89
2024/04/15 11:05:17;;;;;;;0.10;0.10;;;12.20;1.00;;;;;;5558089;25;19923;-87
2024/04/15 11:07:43;;;;;;;0.10;0.10;;;12.20;1.00;;;;;;5523958;25;20038;-91
2024/04/15 11:10:11;;;;;;;0.10;0.10;;;12.30;1.00;;;;;;5525995;25;20016;-87
2024/04/15 11:12:38;;;;;;;0.10;0.10;;;12.50;1.00;;;;;;5530420;25;20452;-88
2024/04/15 11:15:11;;;;;;;0.10;0.10;;;12.60;1.00;;;;;;5552358;25;20041;-88
2024/04/15 11:17:53;;;;;;;0.20;0.20;;;12.80;1.00;;;;;;5521749;25;20341;-87
2024/04/15 11:20:20;;;;;;;0.10;0.10;;;12.90;1.00;;;;;;5525948;25;20017;-90
2024/04/15 11:22:46;;;;;;;0.10;0.10;;;12.90;1.00;;;;;;5520597;25;20041;-90
2024/04/15 11:25:13;;;;;;;0.13;0.13;;;12.80;1.00;;;;;;5524403;25;20346;-87
2024/04/15 11:27:49;;;;;;;0.10;0.10;;;12.70;1.00;;;;;;5538176;25;20013;-87
2024/04/15 11:30:23;;;;;;;0.13;0.13;;;12.50;1.00;;;;;;5559870;25;20004;-88
2024/04/15 11:32:50;;;;;;;0.10;0.10;;;12.30;1.00;;;;;;5531453;25;20001;-90
2024/04/15 11:35:16;;;;;;;0.10;0.10;;;12.20;1.00;;;;;;5523976;25;20005;-87
2024/04/15 11:37:42;;;;;;;0.10;0.10;;;12.10;1.00;;;;;;5521604;25;20034;-85
2024/04/15 11:40:12;;;;;;;0.13;0.13;;;12.00;1.00;;;;;;5526120;25;20076;-81
2024/04/15 11:42:38;;;;;;;0.20;0.20;;;11.90;1.00;;;;;;5535427;25;20001;-86
2024/04/15 11:45:05;;;;;;;0.10;0.10;;;11.70;1.00;;;;;;5559534;25;20024;-89
2024/04/15 11:47:31;;;;;;;0.10;0.10;;;11.60;1.00;;;;;;5557939;25;20005;-84
2024/04/15 11:50:00;;;;;;;0.10;0.10;;;11.50;1.00;;;;;;5558085;25;20877;-86
2024/04/15 11:52:26;;;;;;;0.10;0.10;;;11.30;1.00;;;;;;5536076;25;20446;-83
2024/04/15 11:54:53;;;;;;;0.17;0.17;;;11.10;1.00;;;;;;5518821;25;20005;-84
2024/04/15 11:57:19;;;;;;;0.20;0.20;;;11.00;1.00;;;;;;5521245;25;20002;-84
2024/04/15 11:59:45;;;;;;;0.10;0.10;;;10.90;1.00;;;;;;5519598;25;20013;-84
2024/04/15 12:02:13;;;;;;;0.15;0.15;;;10.80;1.00;;;;;;5526196;25;20532;-84
2024/04/15 12:04:49;;;;;;;0.10;0.10;;;10.80;1.00;;;;;;5558053;25;20340;-84
2024/04/15 12:07:17;;;;;;;0.10;0.10;;;10.70;1.00;;;;;;5555594;25;20448;-85
2024/04/15 12:09:43;;;;;;;0.10;0.10;;;10.60;1.00;;;;;;5557648;25;20012;-87
2024/04/15 12:12:08;;;;;;;0.10;0.10;;;10.60;1.00;;;;;;5557657;25;20004;-85
2024/04/15 12:14:34;;;;;;;0.10;0.10;;;10.60;1.00;;;;;;5557686;25;20072;-87
2024/04/15 12:17:05;;;;;;;0.10;0.10;;;10.60;1.00;;;;;;5527272;25;20497;-86
2024/04/15 12:19:30;;;;;;;0.10;0.10;;;10.60;1.00;;;;;;5520963;26;20078;-86
2024/04/15 12:21:56;;;;;;;0.20;0.20;;;10.60;1.00;;;;;;5517743;26;20405;-87
2024/04/15 12:24:22;;;;;;;0.15;0.15;;;10.50;1.00;;;;;;5520344;26;20001;-86
2024/04/15 12:26:48;;;;;;;0.10;0.10;;;10.50;1.00;;;;;;5519504;26;20471;-84
2024/04/15 12:29:14;;;;;;;0.10;0.10;;;10.50;1.00;;;;;;5550326;25;20005;-85
2024/04/15 12:31:40;;;;;;;0.10;0.10;;;10.40;1.00;;;;;;5560875;25;20013;-85
2024/04/15 12:34:06;;;;;;;0.17;0.17;;;10.40;1.00;;;;;;5563938;25;20005;-85
2024/04/15 12:36:31;;;;;;;0.10;0.10;;;10.40;1.00;;;;;;5558696;25;20467;-85
2024/04/15 12:38:57;;;;;;;0.10;0.10;;;10.30;1.00;;;;;;5560986;25;20005;-85
2024/04/15 12:41:23;;;;;;;0.10;0.10;;;10.30;1.00;;;;;;5561572;25;20005;-83
2024/04/15 12:43:48;;;;;;;0.10;0.10;;;10.20;1.00;;;;;;5561209;25;20452;-88
2024/04/15 12:46:15;;;;;;;0.10;0.10;;;10.20;1.00;;;;;;5561441;25;20016;-87
2024/04/15 12:48:41;;;;;;;0.10;0.10;;;10.20;1.00;;;;;;5560305;25;20004;-85
2024/04/15 12:51:06;;;;;;;0.10;0.10;;;10.10;1.00;;;;;;5552981;25;20443;-89
2024/04/15 12:53:32;;;;;;;0.10;0.10;;;10.10;1.00;;;;;;5524113;25;19998;-84
2024/04/15 12:55:58;;;;;;;0.20;0.20;;;10.20;1.00;;;;;;5521510;25;20046;-84
2024/04/15 12:58:24;;;;;;;0.10;0.10;;;10.10;1.00;;;;;;5524245;25;20441;-85
2024/04/15 13:00:49;;;;;;;0.20;0.20;;;10.00;1.00;;;;;;5523668;25;20073;-86